createdAt,value
2018-03-01T00:00:16.543Z,44.39
2018-03-01T00:02:45.336Z,44.23
2018-03-01T00:05:14.510Z,45.15
2018-03-01T00:07:43.572Z,45.56
2018-03-01T00:10:13.372Z,45.87
2018-03-01T00:12:42.958Z,47.36
2018-03-01T00:15:11.524Z,46.82
2018-03-01T00:17:42.966Z,46.60
2018-03-01T00:20:12.711Z,46.63
2018-03-01T00:22:41.201Z,47.29
2018-03-01T00:25:10.511Z,46.61
2018-03-01T00:27:39.459Z,46.69
2018-03-01T00:30:09.041Z,46.86
2018-03-01T00:32:37.871Z,46.55
2018-03-01T00:35:06.286Z,47.15
2018-03-01T00:37:34.948Z,46.78
2018-03-01T00:40:03.804Z,46.55
2018-03-01T00:42:35.936Z,47.08
2018-03-01T00:45:04.766Z,46.94
2018-03-01T00:47:33.763Z,45.90
2018-03-01T00:50:03.288Z,46.14
2018-03-01T00:52:32.055Z,45.92
2018-03-01T00:55:01.573Z,46.75
2018-03-01T00:57:32.254Z,46.85
2018-03-01T01:00:00.958Z,46.84
2018-03-01T01:02:29.644Z,46.54
2018-03-01T01:04:58.202Z,46.70
2018-03-01T01:07:28.548Z,46.35
2018-03-01T01:09:58.200Z,46.89
2018-03-01T01:12:26.768Z,47.49
2018-03-01T01:14:56.199Z,45.98
2018-03-01T01:17:24.828Z,47.01
2018-03-01T01:19:54.565Z,46.90
2018-03-01T01:22:25.233Z,46.91
2018-03-01T01:24:53.965Z,46.54
2018-03-01T01:27:24.730Z,46.43
2018-03-01T01:29:53.885Z,46.12
2018-03-01T01:32:22.288Z,45.76
2018-03-01T01:34:52.143Z,45.23
2018-03-01T01:37:20.988Z,45.51
2018-03-01T01:39:50.006Z,45.97
2018-03-01T01:42:18.731Z,46.62
2018-03-01T01:44:47.506Z,47.59
2018-03-01T01:47:17.216Z,47.54
2018-03-01T01:49:45.806Z,47.23
2018-03-01T01:52:17.363Z,47.46
2018-03-01T01:54:46.573Z,46.51
2018-03-01T01:57:15.021Z,47.36
2018-03-01T01:59:47.387Z,48.18
2018-03-01T02:02:16.029Z,48.12
2018-03-01T02:04:44.645Z,48.63
2018-03-01T02:07:14.525Z,49.62
2018-03-01T02:09:43.557Z,48.86
2018-03-01T02:12:12.318Z,48.37
2018-03-01T02:14:43.455Z,48.09
2018-03-01T02:17:12.277Z,48.90
2018-03-01T02:19:41.001Z,48.10
2018-03-01T02:22:15.415Z,49.14
2018-03-01T02:24:44.460Z,49.14
2018-03-01T02:27:14.206Z,50.50
2018-03-01T02:29:42.833Z,49.59
2018-03-01T02:32:11.995Z,49.63
2018-03-01T02:34:41.915Z,50.13
2018-03-01T02:37:11.819Z,49.54
2018-03-01T02:39:40.676Z,49.62
2018-03-01T02:42:09.501Z,50.20
2018-03-01T02:44:38.891Z,51.20
2018-03-01T02:47:07.455Z,51.30
2018-03-01T02:49:36.726Z,49.97
2018-03-01T02:52:05.555Z,49.97
2018-03-01T02:54:34.037Z,49.81
2018-03-01T02:57:03.725Z,49.81
2018-03-01T02:59:33.354Z,51.84
2018-03-01T03:02:02.096Z,52.28
2018-03-01T03:04:30.918Z,51.87
2018-03-01T03:06:59.786Z,51.73
2018-03-01T03:09:28.606Z,51.04
2018-03-01T03:11:57.492Z,51.07
2018-03-01T03:14:26.814Z,51.01
2018-03-01T03:16:55.642Z,51.49
2018-03-01T03:19:24.115Z,52.39
2018-03-01T03:21:53.869Z,50.86
2018-03-01T03:24:23.503Z,51.77
2018-03-01T03:26:52.694Z,52.55
2018-03-01T03:29:23.047Z,53.64
2018-03-01T03:31:51.474Z,52.86
2018-03-01T03:34:20.293Z,53.65
2018-03-01T03:36:49.362Z,53.25
2018-03-01T03:39:18.211Z,52.15
2018-03-01T03:41:47.906Z,52.65
2018-03-01T03:44:16.586Z,52.27
2018-03-01T03:46:47.001Z,52.17
2018-03-01T03:49:16.319Z,52.34
2018-03-01T03:51:45.163Z,51.94
2018-03-01T03:54:14.396Z,52.53
2018-03-01T03:56:42.863Z,52.23
2018-03-01T03:59:11.630Z,52.09
2018-03-01T04:01:40.784Z,52.68
2018-03-01T04:04:10.173Z,52.48
2018-03-01T04:06:38.813Z,52.98
2018-03-01T04:09:07.612Z,53.68
2018-03-01T04:11:42.232Z,53.55
2018-03-01T04:14:11.980Z,54.29
2018-03-01T04:16:41.070Z,52.88
2018-03-01T04:19:12.221Z,53.32
2018-03-01T04:21:41.350Z,54.35
2018-03-01T04:24:11.047Z,55.86
2018-03-01T04:26:39.881Z,55.24
2018-03-01T04:29:09.219Z,55.64
2018-03-01T04:31:40.590Z,54.89
2018-03-01T04:34:09.431Z,54.47
2018-03-01T04:36:37.920Z,56.04
2018-03-01T04:39:09.848Z,55.84
2018-03-01T04:41:40.500Z,56.05
2018-03-01T04:44:08.903Z,55.84
2018-03-01T04:46:38.152Z,55.32
2018-03-01T04:49:07.663Z,54.58
2018-03-01T04:51:37.949Z,54.53
2018-03-01T04:54:07.021Z,55.99
2018-03-01T04:56:35.534Z,56.50
2018-03-01T04:59:03.934Z,55.53
2018-03-01T05:01:32.353Z,54.53
2018-03-01T05:04:00.775Z,54.18
2018-03-01T05:06:30.448Z,53.88
2018-03-01T05:08:59.132Z,55.00
2018-03-01T05:11:27.619Z,53.91
2018-03-01T05:13:56.754Z,56.27
2018-03-01T05:16:25.574Z,55.52
2018-03-01T05:18:56.237Z,55.25
2018-03-01T05:21:27.059Z,55.27
2018-03-01T05:23:55.464Z,53.62
2018-03-01T05:26:24.814Z,54.45
2018-03-01T05:28:53.699Z,56.37
2018-03-01T05:31:24.191Z,56.20
2018-03-01T05:33:53.906Z,55.95
2018-03-01T05:36:22.392Z,55.64
2018-03-01T05:38:51.983Z,55.76
2018-03-01T05:41:20.534Z,55.58
2018-03-01T05:43:49.436Z,57.59
2018-03-01T05:46:18.292Z,56.87
2018-03-01T05:48:46.975Z,56.05
2018-03-01T05:51:16.849Z,56.06
2018-03-01T05:53:45.694Z,55.81
2018-03-01T05:56:15.133Z,55.02
2018-03-01T05:58:45.085Z,54.86
2018-03-01T06:01:13.539Z,56.47
2018-03-01T06:03:42.466Z,57.32
2018-03-01T06:06:11.501Z,56.16
2018-03-01T06:08:39.985Z,55.14
2018-03-01T06:11:08.527Z,55.51
2018-03-01T06:13:37.351Z,57.01
2018-03-01T06:16:05.781Z,56.01
2018-03-01T06:18:34.195Z,56.89
2018-03-01T06:21:02.819Z,56.71
2018-03-01T06:23:32.231Z,56.45
2018-03-01T06:26:03.504Z,55.82
2018-03-01T06:28:31.910Z,54.54
2018-03-01T06:31:02.070Z,53.94
2018-03-01T06:33:31.050Z,50.58
2018-03-01T06:35:59.471Z,49.32
2018-03-01T06:38:28.248Z,48.23
2018-03-01T06:40:56.798Z,45.99
2018-03-01T06:43:27.294Z,45.16
2018-03-01T06:45:56.223Z,44.55
2018-03-01T06:48:24.866Z,43.95
2018-03-01T06:50:53.845Z,43.63
2018-03-01T06:53:23.387Z,42.99
2018-03-01T06:55:52.376Z,41.76
2018-03-01T06:58:21.386Z,41.90
2018-03-01T07:00:50.115Z,41.32
2018-03-01T07:03:19.532Z,39.98
2018-03-01T07:05:49.487Z,37.71
2018-03-01T07:08:20.085Z,38.25
2018-03-01T07:10:49.294Z,36.47
2018-03-01T07:13:18.088Z,33.41
2018-03-01T07:15:48.318Z,31.14
2018-03-01T07:18:18.049Z,30.40
2018-03-01T07:20:48.418Z,30.45
2018-03-01T07:23:17.239Z,30.92
2018-03-01T07:25:46.631Z,31.45
2018-03-01T07:28:16.831Z,31.11
2018-03-01T07:30:45.515Z,30.31
2018-03-01T07:33:15.331Z,30.15
2018-03-01T07:35:44.088Z,31.25
2018-03-01T07:38:12.717Z,30.98
2018-03-01T07:40:41.231Z,30.74
2018-03-01T07:43:09.998Z,30.45
2018-03-01T07:45:40.539Z,30.46
2018-03-01T07:48:09.779Z,29.94
2018-03-01T07:50:41.150Z,29.44
2018-03-01T07:53:10.659Z,28.77
2018-03-01T07:55:39.605Z,28.32
2018-03-01T07:58:08.628Z,29.20
2018-03-01T08:00:37.002Z,30.47
2018-03-01T08:03:05.388Z,30.04
2018-03-01T08:05:35.623Z,30.08
2018-03-01T08:08:05.091Z,27.74
2018-03-01T08:10:34.609Z,27.22
2018-03-01T08:13:02.999Z,25.51
2018-03-01T08:15:31.373Z,24.36
2018-03-01T08:18:00.077Z,24.07
2018-03-01T08:20:29.502Z,25.78
2018-03-01T08:22:58.244Z,27.03
2018-03-01T08:25:26.689Z,26.20
2018-03-01T08:27:56.455Z,25.21
2018-03-01T08:30:25.231Z,23.58
2018-03-01T08:32:53.786Z,23.27
2018-03-01T08:35:24.317Z,23.73
2018-03-01T08:37:55.118Z,22.74
2018-03-01T08:40:24.924Z,22.74
2018-03-01T08:42:53.797Z,23.21
2018-03-01T08:45:23.981Z,23.06
2018-03-01T08:47:52.394Z,22.37
2018-03-01T08:50:20.757Z,23.50
2018-03-01T08:52:50.912Z,26.01
2018-03-01T08:55:19.828Z,25.98
2018-03-01T08:57:48.767Z,26.91
2018-03-01T09:00:17.132Z,27.46
2018-03-01T09:02:45.616Z,26.59
2018-03-01T09:05:13.980Z,26.35
2018-03-01T09:07:42.341Z,25.67
2018-03-01T09:10:11.109Z,24.49
2018-03-01T09:12:39.576Z,25.28
2018-03-01T09:15:07.956Z,24.99
2018-03-01T09:17:36.330Z,25.03
2018-03-01T09:20:04.710Z,25.12
2018-03-01T09:22:33.066Z,26.15
2018-03-01T09:25:01.432Z,27.06
2018-03-01T09:27:29.798Z,26.10
2018-03-01T09:29:58.175Z,26.53
2018-03-01T09:32:26.542Z,26.34
2018-03-01T09:34:55.297Z,26.31
2018-03-01T09:37:23.660Z,25.87
2018-03-01T09:39:52.033Z,25.71
2018-03-01T09:42:20.502Z,26.27
2018-03-01T09:44:48.867Z,25.26
2018-03-01T09:47:17.238Z,24.75
2018-03-01T09:49:45.594Z,23.83
2018-03-01T09:52:14.169Z,23.81
2018-03-01T09:54:42.602Z,22.91
2018-03-01T09:57:10.967Z,23.07
2018-03-01T09:59:39.328Z,23.25
2018-03-01T10:02:07.737Z,23.03
2018-03-01T10:04:36.096Z,22.91
2018-03-01T10:07:04.859Z,22.44
2018-03-01T10:09:33.210Z,22.53
2018-03-01T10:12:01.588Z,22.06
2018-03-01T10:14:29.951Z,22.69
2018-03-01T10:16:58.326Z,24.45
2018-03-01T10:19:26.704Z,25.56
2018-03-01T10:21:55.102Z,25.71
2018-03-01T10:24:23.486Z,26.14
2018-03-01T10:26:51.860Z,26.71
2018-03-01T10:29:20.241Z,25.21
2018-03-01T10:31:48.615Z,24.25
2018-03-01T10:34:16.975Z,23.90
2018-03-01T10:36:45.364Z,24.33
2018-03-01T10:39:13.707Z,25.18
2018-03-01T10:41:42.075Z,25.31
2018-03-01T10:44:10.825Z,26.26
2018-03-01T10:46:39.213Z,26.78
2018-03-01T10:49:07.581Z,26.43
2018-03-01T10:51:35.972Z,26.39
2018-03-01T10:54:04.332Z,26.04
2018-03-01T10:56:32.719Z,25.59
2018-03-01T10:59:01.112Z,26.67
2018-03-01T11:01:33.302Z,27.29
2018-03-01T11:04:01.652Z,27.28
2018-03-01T11:06:30.008Z,27.59
2018-03-01T11:08:58.368Z,27.59
2018-03-01T11:11:26.753Z,28.50
2018-03-01T11:13:55.142Z,27.60
2018-03-01T11:16:23.503Z,27.03
2018-03-01T11:18:51.855Z,27.86
2018-03-01T11:21:20.620Z,26.68
2018-03-01T11:23:48.982Z,26.91
2018-03-01T11:26:17.348Z,27.87
2018-03-01T11:28:45.709Z,29.27
2018-03-01T11:31:14.088Z,31.42
2018-03-01T11:33:42.465Z,32.26
2018-03-01T11:36:10.854Z,33.54
2018-03-01T11:38:39.223Z,33.03
2018-03-01T11:41:07.612Z,33.55
2018-03-01T11:43:35.980Z,33.74
2018-03-01T11:46:04.368Z,33.09
2018-03-01T11:48:32.827Z,33.89
2018-03-01T11:51:01.573Z,33.89
2018-03-01T11:53:30.364Z,34.11
2018-03-01T11:55:58.750Z,34.79
2018-03-01T11:58:27.506Z,34.60
2018-03-01T12:00:55.893Z,34.72
2018-03-01T12:03:24.278Z,33.83
2018-03-01T12:05:52.654Z,33.91
2018-03-01T12:08:21.018Z,35.03
2018-03-01T12:10:49.436Z,34.32
2018-03-01T12:13:17.844Z,34.34
2018-03-01T12:15:46.222Z,34.04
2018-03-01T12:18:14.593Z,33.37
2018-03-01T12:20:42.992Z,33.28
2018-03-01T12:23:11.400Z,33.56
2018-03-01T12:25:39.765Z,34.20
2018-03-01T12:28:08.147Z,34.52
2018-03-01T12:30:36.636Z,34.41
2018-03-01T12:33:05.005Z,34.23
2018-03-01T12:35:33.423Z,33.89
2018-03-01T12:38:02.197Z,33.88
2018-03-01T12:40:30.596Z,34.18
2018-03-01T12:42:59.378Z,33.74
2018-03-01T12:45:27.772Z,33.53
2018-03-01T12:47:56.206Z,33.62
2018-03-01T12:50:24.594Z,34.48
2018-03-01T12:52:52.965Z,34.43
2018-03-01T12:55:21.364Z,34.90
2018-03-01T12:57:50.154Z,34.52
2018-03-01T13:00:18.528Z,33.50
2018-03-01T13:02:46.893Z,33.15
2018-03-01T13:05:15.283Z,33.77
2018-03-01T13:07:43.723Z,33.90
2018-03-01T13:10:12.084Z,34.24
2018-03-01T13:12:40.475Z,35.24
2018-03-01T13:15:08.958Z,35.21
2018-03-01T13:17:37.326Z,36.28
2018-03-01T13:20:05.733Z,35.47
2018-03-01T13:22:34.154Z,35.04
2018-03-01T13:25:02.936Z,34.79
2018-03-01T13:27:31.729Z,35.22
2018-03-01T13:30:00.099Z,34.85
2018-03-01T13:32:39.148Z,35.10
2018-03-01T13:35:10.264Z,35.57
2018-03-01T13:37:39.056Z,35.26
2018-03-01T13:40:07.419Z,35.36
2018-03-01T13:42:38.029Z,34.29
2018-03-01T13:45:06.432Z,34.50
2018-03-01T13:47:34.815Z,35.08
2018-03-01T13:50:03.205Z,36.27
2018-03-01T13:52:32.021Z,36.38
2018-03-01T13:55:00.426Z,35.83
2018-03-01T13:57:28.814Z,35.73
2018-03-01T13:59:57.302Z,35.60
2018-03-01T14:02:25.680Z,35.03
2018-03-01T14:04:54.089Z,36.08
2018-03-01T14:07:24.192Z,35.72
2018-03-01T14:09:52.560Z,35.54
2018-03-01T14:15:46.040Z,35.04
2018-03-01T14:18:20.463Z,35.70
2018-03-01T14:21:06.517Z,35.94
2018-03-01T14:23:36.261Z,35.98
2018-03-01T14:29:22.166Z,35.57
2018-03-01T14:31:50.572Z,36.44
2018-03-01T14:34:18.949Z,36.05
2018-03-01T14:36:47.355Z,34.74
2018-03-01T14:39:15.758Z,34.89
2018-03-01T14:41:44.132Z,35.05
2018-03-01T14:44:12.898Z,34.49
2018-03-01T14:46:41.695Z,36.14
2018-03-01T14:49:10.477Z,35.45
2018-03-01T14:51:39.080Z,34.72
2018-03-01T14:54:07.836Z,34.39
2018-03-01T14:56:36.633Z,35.34
2018-03-01T14:59:05.007Z,35.91
2018-03-01T15:01:33.415Z,36.25
2018-03-01T15:04:01.849Z,36.43
2018-03-01T15:06:30.379Z,36.35
2018-03-01T15:08:58.805Z,36.23
2018-03-01T15:11:27.212Z,36.49
2018-03-01T15:13:56.109Z,36.41
2018-03-01T15:16:24.944Z,36.56
2018-03-01T15:18:53.347Z,36.06
2018-03-01T15:21:21.964Z,36.80
2018-03-01T15:23:50.376Z,37.42
2018-03-01T15:26:18.818Z,37.38
2018-03-01T15:28:47.630Z,37.34
2018-03-01T15:31:16.101Z,37.55
2018-03-01T15:33:44.540Z,37.61
2018-03-01T15:36:12.949Z,36.92
2018-03-01T15:38:41.749Z,37.23
2018-03-01T15:41:10.163Z,37.26
2018-03-01T15:43:38.559Z,38.07
2018-03-01T15:46:06.970Z,37.59
2018-03-01T15:48:35.761Z,37.56
2018-03-01T15:51:04.561Z,37.67
2018-03-01T15:53:32.957Z,37.73
2018-03-01T15:56:01.380Z,38.10
2018-03-01T15:58:29.788Z,37.12
2018-03-01T16:00:58.585Z,37.45
2018-03-01T16:03:27.373Z,38.41
2018-03-01T16:05:55.844Z,38.29
2018-03-01T16:08:24.648Z,37.88
2018-03-01T16:10:53.065Z,36.69
2018-03-01T16:13:21.461Z,37.80
2018-03-01T16:15:49.874Z,38.19
2018-03-01T16:18:18.693Z,37.93
2018-03-01T16:20:47.097Z,38.42
2018-03-01T16:23:15.491Z,39.11
2018-03-01T16:25:43.932Z,39.82
2018-03-01T16:28:12.378Z,38.82
2018-03-01T16:30:41.207Z,38.39
2018-03-01T16:33:09.621Z,39.31
2018-03-01T16:35:38.046Z,39.73
2018-03-01T16:38:06.453Z,39.84
2018-03-01T16:40:34.859Z,40.37
2018-03-01T16:43:03.266Z,40.39
2018-03-01T16:45:32.069Z,40.51
2018-03-01T16:48:00.525Z,39.75
2018-03-01T16:50:28.949Z,40.69
2018-03-01T16:52:57.349Z,40.75
2018-03-01T16:55:25.754Z,40.49
2018-03-01T16:57:54.150Z,40.37
2018-03-01T17:00:23.055Z,40.57
2018-03-01T17:02:51.856Z,40.57
2018-03-01T17:05:20.285Z,40.74
2018-03-01T17:07:48.742Z,41.05
2018-03-01T17:10:17.146Z,40.40
2018-03-01T17:12:45.546Z,40.46
2018-03-01T17:15:13.950Z,40.09
2018-03-01T17:17:42.354Z,41.44
2018-03-01T17:20:10.801Z,41.44
2018-03-01T17:22:39.603Z,40.51
2018-03-01T17:25:08.038Z,40.59
2018-03-01T17:27:36.457Z,40.48
2018-03-01T17:30:04.904Z,39.93
2018-03-01T17:32:33.309Z,40.36
2018-03-01T17:35:02.134Z,40.20
2018-03-01T17:37:30.560Z,40.46
2018-03-01T17:39:58.964Z,40.30
2018-03-01T17:42:27.377Z,39.95
2018-03-01T17:44:55.854Z,41.07
2018-03-01T17:47:24.456Z,40.27
2018-03-01T17:49:52.961Z,40.35
2018-03-01T17:52:21.362Z,40.49
2018-03-01T17:54:50.155Z,39.70
2018-03-01T17:57:18.551Z,40.09
2018-03-01T17:59:47.114Z,40.17
2018-03-01T18:02:15.994Z,41.07
2018-03-01T18:04:44.489Z,40.41
2018-03-01T18:07:12.950Z,41.11
2018-03-01T18:09:41.746Z,41.59
2018-03-01T18:12:10.175Z,41.21
2018-03-01T18:14:38.573Z,41.52
2018-03-01T18:17:07.012Z,41.37
2018-03-01T18:19:35.453Z,41.87
2018-03-01T18:22:03.855Z,41.03
2018-03-01T18:24:32.660Z,40.70
2018-03-01T18:27:01.106Z,41.44
2018-03-01T18:29:29.531Z,42.37
2018-03-01T18:31:57.946Z,42.35
2018-03-01T18:34:26.362Z,42.75
2018-03-01T18:36:55.212Z,41.76
2018-03-01T18:39:23.604Z,42.09
2018-03-01T18:41:52.015Z,42.64
2018-03-01T18:44:20.425Z,43.18
2018-03-01T18:46:48.835Z,42.87
2018-03-01T18:49:17.238Z,43.34
2018-03-01T18:51:46.043Z,41.56
2018-03-01T18:54:14.840Z,43.12
2018-03-01T18:56:43.244Z,42.97
2018-03-01T18:59:11.663Z,42.93
2018-03-01T19:01:40.100Z,42.99
2018-03-01T19:04:08.525Z,42.73
2018-03-01T19:06:36.980Z,43.34
2018-03-01T19:09:05.394Z,43.30
2018-03-01T19:11:34.199Z,43.10
2018-03-01T19:14:03.007Z,43.21
2018-03-01T19:16:31.405Z,42.72
2018-03-01T19:18:59.819Z,42.32
2018-03-01T19:21:28.248Z,42.98
2018-03-01T19:23:56.757Z,44.05
2018-03-01T19:26:25.505Z,43.68
2018-03-01T19:28:53.903Z,43.35
2018-03-01T19:31:22.332Z,42.14
2018-03-01T19:33:50.724Z,42.54
2018-03-01T19:36:19.540Z,43.04
2018-03-01T19:38:47.937Z,43.79
2018-03-01T19:41:16.357Z,43.35
2018-03-01T19:43:44.779Z,43.04
2018-03-01T19:46:13.180Z,42.77
2018-03-01T19:48:41.607Z,43.26
2018-03-01T19:51:10.008Z,42.52
2018-03-01T19:53:38.408Z,41.84
2018-03-01T19:56:06.796Z,42.39
2018-03-01T19:58:35.214Z,43.58
2018-03-01T20:01:03.620Z,44.54
2018-03-01T20:03:32.414Z,44.42
2018-03-01T20:06:00.811Z,44.03
2018-03-01T20:08:29.231Z,44.86
2018-03-01T20:10:57.649Z,45.32
2018-03-01T20:13:26.456Z,45.20
2018-03-01T20:15:54.879Z,44.21
2018-03-01T20:18:23.337Z,44.99
2018-03-01T20:20:51.735Z,44.94
2018-03-01T20:23:20.167Z,44.81
2018-03-01T20:25:48.569Z,45.61
2018-03-01T20:28:16.969Z,46.15
2018-03-01T20:30:45.365Z,45.47
2018-03-01T20:33:14.670Z,45.58
2018-03-01T20:35:43.109Z,45.36
2018-03-01T20:38:11.496Z,45.55
2018-03-01T20:40:39.919Z,44.42
2018-03-01T20:43:08.312Z,45.29
2018-03-01T20:45:37.126Z,45.97
2018-03-01T20:48:05.645Z,45.71
2018-03-01T20:50:34.053Z,44.32
2018-03-01T20:53:02.848Z,44.48
2018-03-01T20:55:31.244Z,45.08
2018-03-01T20:57:59.642Z,46.02
2018-03-01T21:00:28.520Z,46.04
2018-03-01T21:02:58.149Z,47.01
2018-03-01T21:05:26.691Z,46.08
2018-03-01T21:07:56.693Z,45.83
2018-03-01T21:10:25.495Z,46.08
2018-03-01T21:12:54.274Z,46.14
2018-03-01T21:15:23.075Z,46.81
2018-03-01T21:17:52.482Z,47.01
2018-03-01T21:20:20.939Z,46.02
2018-03-01T21:22:49.626Z,45.91
2018-03-01T21:25:19.649Z,46.63
2018-03-01T21:27:48.458Z,46.87
2018-03-01T21:30:19.345Z,46.35
2018-03-01T21:32:47.747Z,46.44
2018-03-01T21:35:17.303Z,46.71
2018-03-01T21:37:45.948Z,45.55
2018-03-01T21:40:14.964Z,46.12
2018-03-01T21:42:43.393Z,46.57
2018-03-01T21:45:11.952Z,46.15
2018-03-01T21:47:40.365Z,48.23
2018-03-01T21:50:10.745Z,46.66
2018-03-01T21:52:39.474Z,45.79
2018-03-01T21:55:07.895Z,47.13
2018-03-01T21:57:36.639Z,48.26
2018-03-01T22:00:05.307Z,47.09
2018-03-01T22:02:35.057Z,47.38
2018-03-01T22:05:03.842Z,46.91
2018-03-01T22:07:32.386Z,47.10
2018-03-01T22:10:01.111Z,46.11
2018-03-01T22:12:29.513Z,46.47
2018-03-01T22:14:58.624Z,46.76
2018-03-01T22:17:28.138Z,47.31
2018-03-01T22:19:57.667Z,47.19
2018-03-01T22:22:26.165Z,46.80
2018-03-01T22:24:54.875Z,47.13
2018-03-01T22:27:25.466Z,47.47
2018-03-01T22:29:54.946Z,47.42
2018-03-01T22:32:23.643Z,46.84
2018-03-01T22:34:52.799Z,45.95
2018-03-01T22:37:21.304Z,46.39
2018-03-01T22:39:49.710Z,46.92
2018-03-01T22:42:18.129Z,46.41
2018-03-01T22:44:47.475Z,47.38
2018-03-01T22:47:16.033Z,46.75
2018-03-01T22:49:44.439Z,47.02
2018-03-01T22:52:13.813Z,46.99
2018-03-01T22:54:42.447Z,45.94
2018-03-01T22:57:13.842Z,46.33
2018-03-01T22:59:43.607Z,45.52
2018-03-01T23:02:12.198Z,46.41
2018-03-01T23:04:40.953Z,45.51
2018-03-01T23:07:10.360Z,46.17
2018-03-01T23:09:38.949Z,46.71
2018-03-01T23:12:07.953Z,46.49
2018-03-01T23:14:37.012Z,46.23
2018-03-01T23:17:05.898Z,46.61
2018-03-01T23:19:34.680Z,46.61
2018-03-01T23:22:05.049Z,46.44
2018-03-01T23:24:34.275Z,47.45
2018-03-01T23:27:02.956Z,47.57
2018-03-01T23:29:31.654Z,46.48
2018-03-01T23:32:01.438Z,47.53
2018-03-01T23:34:30.098Z,47.61
2018-03-01T23:37:00.495Z,46.90
2018-03-01T23:39:29.413Z,46.64
2018-03-01T23:41:59.220Z,45.99
2018-03-01T23:44:28.596Z,47.09
2018-03-01T23:46:57.217Z,46.21
2018-03-01T23:49:25.697Z,46.83
2018-03-01T23:51:54.526Z,47.02
2018-03-01T23:54:24.304Z,46.59
2018-03-01T23:56:53.266Z,47.73
2018-03-01T23:59:21.697Z,49.10
